Terminal Aerodrome Forecast
Issued by NWS Bismarck, ND

Home | Current Version | Previous Version | Graphics & Text | Print | Product List | Glossary On
Versions: 1 2 3 4 5 6 7 8 9 10 11 12 13 14 15 16 17 18 19 20 21
750
FTUS43 KBIS 141736
TAFBIS
TAF
KBIS 141736Z 1418/1518 32019G26KT 4SM -SN BR BKN015 OVC025
      TEMPO 1418/1420 6SM -SN BLSN SCT015 BKN035
     FM142000 33018G24KT P6SM FEW018 SCT035
     FM150100 33014KT P6SM SKC
     FM150900 33011KT P6SM SKC=

USA.gov is the U.S. government's official web portal to all federal, state and local government web resources and services.